createdAt,value
2022-10-23T00:01:46.376Z,11.90
2022-10-23T00:04:19.060Z,11.57
2022-10-23T00:06:49.503Z,11.43
2022-10-23T00:09:22.234Z,11.27
2022-10-23T00:11:52.574Z,11.10
2022-10-23T00:14:24.563Z,11.70
2022-10-23T00:16:53.979Z,11.07
2022-10-23T00:19:21.836Z,12.13
2022-10-23T00:21:49.782Z,12.00
2022-10-23T00:24:17.897Z,12.17
2022-10-23T00:26:46.100Z,11.83
2022-10-23T00:29:13.924Z,11.43
2022-10-23T00:31:43.065Z,11.57
2022-10-23T00:34:12.019Z,10.43
2022-10-23T00:36:40.051Z,10.37
2022-10-23T00:39:07.943Z,11.00
2022-10-23T00:41:35.852Z,10.87
2022-10-23T00:44:09.109Z,10.80
2022-10-23T00:46:39.266Z,10.17
2022-10-23T00:51:47.446Z,9.83
2022-10-23T00:54:24.303Z,8.60
2022-10-23T00:56:58.342Z,8.27
2022-10-23T00:59:27.778Z,8.83
2022-10-23T01:01:56.649Z,9.57
2022-10-23T01:04:27.704Z,10.13
2022-10-23T01:07:05.538Z,10.90
2022-10-23T01:09:41.653Z,11.67
2022-10-23T01:12:23.316Z,11.77
2022-10-23T01:15:07.073Z,11.30
2022-10-23T01:17:44.448Z,10.43
2022-10-23T01:20:39.725Z,11.00
2022-10-23T01:23:47.679Z,10.65
2022-10-23T01:26:37.227Z,9.37
2022-10-23T01:29:20.345Z,8.87
2022-10-23T01:31:56.361Z,8.73
2022-10-23T01:34:36.873Z,9.00
2022-10-23T01:37:10.463Z,9.20
2022-10-23T01:39:47.352Z,8.50
2022-10-23T01:42:22.401Z,7.53
2022-10-23T01:44:59.554Z,7.82
2022-10-23T01:47:34.026Z,8.00
2022-10-23T01:50:10.615Z,8.10
2022-10-23T01:52:42.320Z,7.50
2022-10-23T01:55:13.425Z,7.03
2022-10-23T01:57:45.651Z,7.47
2022-10-23T02:00:21.018Z,7.30
2022-10-23T02:02:58.781Z,7.70
2022-10-23T02:05:33.246Z,7.93
2022-10-23T02:08:03.851Z,7.60
2022-10-23T02:10:52.518Z,7.83
2022-10-23T02:13:32.254Z,7.27
2022-10-23T02:16:13.217Z,7.30
2022-10-23T02:18:54.279Z,8.00
2022-10-23T02:21:32.122Z,8.50
2022-10-23T02:24:07.534Z,8.70
2022-10-23T02:26:43.605Z,8.87
2022-10-23T02:29:25.530Z,8.80
2022-10-23T02:31:54.798Z,9.70
2022-10-23T02:34:23.278Z,9.00
2022-10-23T02:36:51.303Z,9.07
2022-10-23T02:39:26.709Z,9.00
2022-10-23T02:42:07.338Z,9.43
2022-10-23T02:44:53.806Z,9.57
2022-10-23T02:47:38.470Z,10.40
2022-10-23T02:50:18.537Z,10.97
2022-10-23T02:52:58.495Z,10.13
2022-10-23T02:55:43.234Z,10.60
2022-10-23T02:58:27.342Z,10.87
2022-10-23T03:01:09.965Z,10.53
2022-10-23T03:03:45.592Z,10.50
2022-10-23T03:08:44.984Z,9.43
2022-10-23T03:11:12.801Z,10.73
2022-10-23T03:13:40.626Z,11.67
2022-10-23T03:16:08.445Z,11.43
2022-10-23T03:18:36.897Z,11.87
2022-10-23T03:21:06.632Z,11.20
2022-10-23T03:23:36.533Z,10.63
2022-10-23T03:26:06.028Z,10.57
2022-10-23T03:28:39.180Z,10.87
2022-10-23T03:31:07.076Z,10.27
2022-10-23T03:33:35.057Z,11.17
2022-10-23T03:36:13.118Z,10.70
2022-10-23T03:38:41.336Z,11.83
2022-10-23T03:41:09.180Z,12.00
2022-10-23T03:43:38.454Z,12.43
2022-10-23T03:46:12.282Z,9.73
2022-10-23T03:48:42.028Z,9.30
2022-10-23T03:51:09.933Z,9.67
2022-10-23T03:53:42.510Z,9.87
2022-10-23T03:56:11.486Z,9.00
2022-10-23T03:58:40.635Z,8.90
2022-10-23T04:01:08.993Z,9.00
2022-10-23T04:03:38.399Z,9.30
2022-10-23T04:06:07.323Z,9.33
2022-10-23T04:08:36.186Z,8.40
2022-10-23T04:11:11.672Z,8.40
2022-10-23T04:13:46.457Z,9.07
2022-10-23T04:16:15.188Z,10.07
2022-10-23T04:18:45.964Z,10.17
2022-10-23T04:21:13.830Z,9.83
2022-10-23T04:23:41.884Z,10.67
2022-10-23T04:26:15.876Z,11.07
2022-10-23T04:28:43.652Z,11.13
2022-10-23T04:31:11.622Z,11.53
2022-10-23T04:33:42.128Z,12.27
2022-10-23T04:36:10.901Z,11.07
2022-10-23T04:38:41.114Z,10.90
2022-10-23T04:41:09.092Z,11.03
2022-10-23T04:43:38.282Z,11.10
2022-10-23T04:46:06.680Z,10.77
2022-10-23T04:48:35.365Z,10.07
2022-10-23T04:51:25.915Z,9.90
2022-10-23T04:54:06.342Z,9.70
2022-10-23T04:57:00.598Z,10.20
2022-10-23T05:02:07.384Z,9.87
2022-10-23T05:04:35.245Z,10.47
2022-10-23T05:07:37.659Z,10.57
2022-10-23T05:10:15.260Z,10.40
2022-10-23T05:12:50.236Z,10.27
2022-10-23T05:15:19.413Z,10.43
2022-10-23T05:17:52.347Z,9.60
2022-10-23T05:20:26.692Z,9.37
2022-10-23T05:22:59.497Z,9.57
2022-10-23T05:25:30.897Z,10.40
2022-10-23T05:28:12.694Z,10.30
2022-10-23T05:30:43.139Z,9.57
2022-10-23T05:33:11.792Z,10.53
2022-10-23T05:35:45.337Z,10.87
2022-10-23T05:38:16.608Z,11.40
2022-10-23T05:40:45.157Z,10.70
2022-10-23T05:43:19.343Z,11.43
2022-10-23T05:46:11.617Z,11.43
2022-10-23T05:49:07.305Z,12.10
2022-10-23T05:51:50.705Z,11.40
2022-10-23T05:54:41.450Z,10.40
2022-10-23T05:57:23.869Z,9.60
2022-10-23T05:59:53.833Z,11.17
2022-10-23T06:02:25.955Z,9.27
2022-10-23T06:05:00.742Z,9.53
2022-10-23T06:07:47.820Z,8.97
2022-10-23T06:10:15.770Z,9.13
2022-10-23T06:12:47.057Z,8.53
2022-10-23T06:15:18.525Z,9.93
2022-10-23T06:18:02.505Z,8.57
2022-10-23T06:20:37.313Z,9.30
2022-10-23T06:23:13.092Z,7.50
2022-10-23T06:25:59.409Z,8.43
2022-10-23T06:28:37.192Z,8.03
2022-10-23T06:31:06.616Z,7.80
2022-10-23T06:33:36.010Z,8.07
2022-10-23T06:36:10.182Z,7.93
2022-10-23T06:38:41.674Z,8.60
2022-10-23T06:41:16.395Z,7.70
2022-10-23T06:43:49.051Z,8.00
2022-10-23T06:46:24.385Z,7.43
2022-10-23T06:49:12.063Z,9.03
2022-10-23T06:51:46.909Z,8.10
2022-10-23T06:54:15.843Z,8.23
2022-10-23T06:56:49.315Z,8.80
2022-10-23T06:59:21.005Z,8.60
2022-10-23T07:01:51.592Z,8.90
2022-10-23T07:04:20.893Z,9.77
2022-10-23T07:06:49.715Z,8.10
2022-10-23T07:09:24.598Z,8.40
2022-10-23T07:11:52.489Z,7.97
2022-10-23T07:14:24.379Z,8.23
2022-10-23T07:16:54.415Z,8.73
2022-10-23T07:19:24.423Z,8.23
2022-10-23T07:21:56.721Z,7.77
2022-10-23T07:24:46.281Z,8.43
2022-10-23T07:27:28.245Z,8.80
2022-10-23T07:29:58.272Z,8.40
2022-10-23T07:32:30.896Z,8.63
2022-10-23T07:35:37.159Z,7.80
2022-10-23T07:38:13.782Z,7.77
2022-10-23T07:40:45.735Z,7.73
2022-10-23T07:43:18.461Z,7.90
2022-10-23T07:45:48.991Z,8.60
2022-10-23T07:48:38.516Z,8.33
2022-10-23T07:51:12.305Z,8.37
2022-10-23T07:53:45.287Z,7.27
2022-10-23T07:56:31.571Z,8.00
2022-10-23T07:59:20.912Z,7.80
2022-10-23T08:01:56.458Z,7.70
2022-10-23T08:04:30.015Z,6.40
2022-10-23T08:07:07.950Z,6.90
2022-10-23T08:09:41.170Z,7.22
2022-10-23T08:12:09.995Z,7.72
2022-10-23T08:14:39.137Z,7.17
2022-10-23T08:17:09.901Z,6.73
2022-10-23T08:20:03.576Z,6.87
2022-10-23T08:22:39.202Z,7.00
2022-10-23T08:25:08.099Z,7.17
2022-10-23T08:27:37.057Z,6.67
2022-10-23T08:30:06.806Z,6.50
2022-10-23T08:32:34.769Z,6.50
2022-10-23T08:35:04.504Z,6.57
2022-10-23T08:37:36.315Z,6.57
2022-10-23T08:40:07.283Z,6.83
2022-10-23T08:43:21.951Z,6.50
2022-10-23T08:46:12.990Z,6.70
2022-10-23T08:49:28.734Z,6.50
2022-10-23T08:52:15.679Z,6.83
2022-10-23T08:55:00.140Z,6.60
2022-10-23T08:57:40.086Z,6.13
2022-10-23T09:00:15.891Z,5.83
2022-10-23T09:02:47.183Z,6.33
2022-10-23T09:05:19.947Z,6.57
2022-10-23T09:08:08.684Z,6.13
2022-10-23T09:10:56.543Z,6.38
2022-10-23T09:13:56.133Z,5.95
2022-10-23T09:16:43.066Z,5.40
2022-10-23T09:19:17.121Z,6.03
2022-10-23T09:21:49.888Z,5.32
2022-10-23T09:24:20.890Z,5.40
2022-10-23T09:26:53.129Z,4.93
2022-10-23T09:29:29.021Z,5.28
2022-10-23T09:32:00.166Z,5.15
2022-10-23T09:34:31.532Z,5.40
2022-10-23T09:37:03.020Z,5.07
2022-10-23T09:39:33.953Z,5.18
2022-10-23T09:42:20.886Z,4.95
2022-10-23T09:44:52.644Z,4.75
2022-10-23T09:47:24.482Z,5.05
2022-10-23T09:49:55.084Z,4.78
2022-10-23T09:52:33.256Z,5.00
2022-10-23T09:55:18.477Z,5.18
2022-10-23T09:57:47.819Z,5.13
2022-10-23T10:00:21.153Z,4.80
2022-10-23T10:02:58.974Z,5.00
2022-10-23T10:06:00.959Z,5.53
2022-10-23T10:08:41.330Z,4.75
2022-10-23T10:11:19.951Z,4.78
2022-10-23T10:14:04.732Z,4.55
2022-10-23T10:16:50.529Z,4.13
2022-10-23T10:19:48.754Z,4.20
2022-10-23T10:22:32.349Z,4.40
2022-10-23T10:25:11.366Z,4.30
2022-10-23T10:27:56.870Z,4.13
2022-10-23T10:30:34.172Z,4.55
2022-10-23T10:33:14.576Z,4.47
2022-10-23T10:35:53.533Z,3.90
2022-10-23T10:38:48.303Z,3.53
2022-10-23T10:41:37.375Z,3.40
2022-10-23T10:44:35.925Z,3.28
2022-10-23T10:47:21.045Z,2.88
2022-10-23T10:50:07.574Z,2.80
2022-10-23T10:53:02.421Z,2.90
2022-10-23T10:55:38.357Z,3.00
2022-10-23T10:58:18.620Z,3.10
2022-10-23T11:00:53.009Z,2.80
2022-10-23T11:03:39.171Z,2.87
2022-10-23T11:06:16.848Z,3.00
2022-10-23T11:08:57.477Z,2.97
2022-10-23T11:11:35.861Z,2.55
2022-10-23T11:14:04.286Z,2.65
2022-10-23T11:16:38.056Z,2.60
2022-10-23T11:19:18.425Z,2.60
2022-10-23T11:21:58.136Z,2.60
2022-10-23T11:25:05.938Z,2.53
2022-10-23T11:28:10.209Z,2.38
2022-10-23T11:30:59.353Z,2.55
2022-10-23T11:34:13.790Z,2.38
2022-10-23T11:36:50.324Z,2.28
2022-10-23T11:39:31.746Z,2.60
2022-10-23T11:42:15.693Z,2.80
2022-10-23T11:44:46.706Z,2.70
2022-10-23T11:47:39.282Z,2.65
2022-10-23T11:50:31.071Z,2.80
2022-10-23T11:53:20.888Z,2.60
2022-10-23T11:56:25.460Z,2.40
2022-10-23T11:58:57.162Z,2.30
2022-10-23T12:01:33.891Z,2.90
2022-10-23T12:04:16.845Z,2.60
2022-10-23T12:06:50.164Z,2.80
2022-10-23T12:09:37.373Z,2.63
2022-10-23T12:12:17.788Z,2.95
2022-10-23T12:14:48.686Z,2.53
2022-10-23T12:17:33.357Z,2.47
2022-10-23T12:20:25.759Z,2.57
2022-10-23T12:23:34.241Z,2.50
2022-10-23T12:26:28.972Z,2.50
2022-10-23T12:29:11.947Z,2.25
2022-10-23T12:31:54.057Z,2.70
2022-10-23T12:34:45.015Z,2.15
2022-10-23T12:37:45.470Z,2.00
2022-10-23T12:40:13.575Z,2.35
2022-10-23T12:42:54.983Z,2.60
2022-10-23T12:45:27.488Z,2.10
2022-10-23T12:47:55.590Z,2.20
2022-10-23T12:50:28.191Z,2.53
2022-10-23T12:52:58.753Z,2.10
2022-10-23T12:55:35.062Z,2.10
2022-10-23T12:58:05.212Z,6.60
2022-10-23T13:00:33.254Z,2.83
2022-10-23T13:03:03.948Z,2.10
2022-10-23T13:05:32.696Z,1.90
2022-10-23T13:08:02.547Z,1.80
2022-10-23T13:10:50.225Z,2.45
2022-10-23T13:13:24.355Z,2.58
2022-10-23T13:15:52.204Z,1.90
2022-10-23T13:18:21.664Z,2.00
2022-10-23T13:20:59.608Z,1.88
2022-10-23T13:23:31.383Z,2.25
2022-10-23T13:26:01.823Z,1.75
2022-10-23T13:28:34.953Z,1.95
2022-10-23T13:31:25.242Z,2.70
2022-10-23T13:34:16.220Z,1.92
2022-10-23T13:36:54.495Z,1.90
2022-10-23T13:39:26.165Z,1.52
2022-10-23T13:41:54.206Z,1.50
2022-10-23T13:44:25.003Z,1.50
2022-10-23T13:46:52.972Z,1.90
2022-10-23T13:49:21.026Z,1.65
2022-10-23T13:52:22.305Z,2.00
2022-10-23T13:54:48.278Z,1.70
2022-10-23T13:57:35.249Z,1.60
2022-10-23T14:00:06.952Z,4.55
2022-10-23T14:02:40.189Z,1.80
2022-10-23T14:05:08.652Z,1.73
2022-10-23T14:07:36.911Z,1.50
2022-10-23T14:10:07.651Z,1.60
2022-10-23T14:12:42.055Z,1.63
2022-10-23T14:15:13.848Z,1.60
2022-10-23T14:17:41.663Z,1.60
2022-10-23T14:20:11.864Z,1.85
2022-10-23T14:22:42.049Z,1.63
2022-10-23T14:25:12.497Z,1.70
2022-10-23T14:27:40.344Z,1.77
2022-10-23T14:30:10.082Z,1.70
2022-10-23T14:32:39.750Z,1.65
2022-10-23T14:35:08.656Z,1.80
2022-10-23T14:37:36.735Z,1.70
2022-10-23T14:40:06.514Z,1.45
2022-10-23T14:42:34.518Z,2.00
2022-10-23T14:45:03.595Z,10.98
2022-10-23T14:47:31.946Z,1.90
2022-10-23T14:50:01.117Z,1.52
2022-10-23T14:52:29.024Z,1.52
2022-10-23T14:54:56.840Z,1.60
2022-10-23T14:57:25.022Z,1.60
2022-10-23T14:59:52.793Z,1.77
2022-10-23T15:02:20.604Z,1.80
2022-10-23T15:04:48.391Z,1.50
2022-10-23T15:07:18.312Z,1.50
2022-10-23T15:09:46.200Z,1.52
2022-10-23T15:12:13.974Z,1.60
2022-10-23T15:14:41.732Z,1.75
2022-10-23T15:17:14.547Z,1.70
2022-10-23T15:19:43.690Z,1.50
2022-10-23T15:22:11.666Z,1.58
2022-10-23T15:24:41.018Z,1.70
2022-10-23T15:29:37.990Z,1.60
2022-10-23T15:32:07.733Z,1.92
2022-10-23T15:34:37.822Z,2.00
2022-10-23T15:37:06.041Z,1.85
2022-10-23T15:39:35.472Z,3.08
2022-10-23T15:42:09.414Z,2.33
2022-10-23T15:44:39.649Z,2.17
2022-10-23T15:47:07.684Z,1.75
2022-10-23T15:49:36.869Z,2.33
2022-10-23T15:52:05.006Z,1.83
2022-10-23T15:54:33.244Z,1.90
2022-10-23T15:57:03.699Z,2.17
2022-10-23T15:59:33.846Z,1.90
2022-10-23T16:02:01.856Z,2.05
2022-10-23T16:04:30.307Z,2.25
2022-10-23T16:06:58.235Z,1.90
2022-10-23T16:09:26.225Z,2.15
2022-10-23T16:11:54.085Z,2.08
2022-10-23T16:14:21.904Z,2.20
2022-10-23T16:16:51.288Z,2.10
2022-10-23T16:19:20.208Z,2.17
2022-10-23T16:21:48.305Z,2.30
2022-10-23T16:24:16.986Z,2.35
2022-10-23T16:26:50.225Z,2.40
2022-10-23T16:29:19.017Z,2.35
2022-10-23T16:31:46.848Z,2.13
2022-10-23T16:34:16.457Z,2.78
2022-10-23T16:36:45.057Z,2.10
2022-10-23T16:39:33.786Z,2.50
2022-10-23T16:42:20.258Z,2.30
2022-10-23T16:45:12.082Z,2.30
2022-10-23T16:47:39.972Z,2.45
2022-10-23T16:50:11.564Z,2.38
2022-10-23T16:52:39.832Z,2.50
2022-10-23T16:55:10.033Z,2.50
2022-10-23T16:57:38.424Z,2.83
2022-10-23T17:00:07.952Z,2.60
2022-10-23T17:02:38.055Z,2.63
2022-10-23T17:05:08.386Z,2.38
2022-10-23T17:07:37.862Z,2.85
2022-10-23T17:10:12.693Z,2.50
2022-10-23T17:12:40.549Z,2.70
2022-10-23T17:15:10.534Z,2.80
2022-10-23T17:17:38.429Z,2.90
2022-10-23T17:20:07.607Z,2.70
2022-10-23T17:22:39.005Z,2.88
2022-10-23T17:25:10.729Z,3.00
2022-10-23T17:27:39.097Z,3.30
2022-10-23T17:30:12.633Z,3.05
2022-10-23T17:32:41.505Z,3.63
2022-10-23T17:35:11.900Z,3.50
2022-10-23T17:37:41.316Z,4.15
2022-10-23T17:40:11.525Z,3.83
2022-10-23T17:42:40.605Z,5.45
2022-10-23T17:45:10.151Z,5.90
2022-10-23T17:47:41.287Z,5.57
2022-10-23T17:50:13.006Z,5.57
2022-10-23T17:52:42.890Z,5.25
2022-10-23T17:55:11.473Z,5.30
2022-10-23T17:57:40.008Z,4.82
2022-10-23T18:00:09.884Z,3.22
2022-10-23T18:02:44.680Z,3.92
2022-10-23T18:05:13.054Z,4.53
2022-10-23T18:07:42.536Z,4.85
2022-10-23T18:10:11.781Z,5.88
2022-10-23T18:12:40.500Z,4.88
2022-10-23T18:15:11.212Z,5.63
2022-10-23T18:17:39.027Z,6.70
2022-10-23T18:20:08.588Z,6.03
2022-10-23T18:22:36.863Z,6.35
2022-10-23T18:25:07.610Z,6.10
2022-10-23T18:27:36.713Z,6.82
2022-10-23T18:30:06.706Z,6.50
2022-10-23T18:32:34.673Z,5.80
2022-10-23T18:35:02.811Z,7.15
2022-10-23T18:37:38.978Z,6.45
2022-10-23T18:40:13.326Z,6.35
2022-10-23T18:42:42.701Z,6.90
2022-10-23T18:45:14.383Z,7.30
2022-10-23T18:47:42.788Z,7.75
2022-10-23T18:50:12.221Z,7.82
2022-10-23T18:52:42.758Z,8.07
2022-10-23T18:55:13.561Z,7.43
2022-10-23T18:57:42.032Z,7.45
2022-10-23T19:00:13.254Z,7.35
2022-10-23T19:02:47.719Z,7.10
2022-10-23T19:05:19.363Z,7.47
2022-10-23T19:07:50.611Z,8.00
2022-10-23T19:10:23.919Z,8.10
2022-10-23T19:12:52.483Z,6.13
2022-10-23T19:15:20.651Z,6.72
2022-10-23T19:17:55.175Z,6.50
2022-10-23T19:23:02.396Z,6.38
2022-10-23T19:25:37.650Z,5.80
2022-10-23T19:28:06.558Z,6.03
2022-10-23T19:30:35.306Z,4.25
2022-10-23T19:33:04.221Z,5.03
2022-10-23T19:35:32.560Z,5.28
2022-10-23T19:38:00.390Z,4.72
2022-10-23T19:40:28.305Z,5.80
2022-10-23T19:42:57.924Z,5.07
2022-10-23T19:45:25.937Z,6.03
2022-10-23T19:47:54.204Z,5.15
2022-10-23T19:50:22.123Z,5.20
2022-10-23T19:52:51.404Z,4.70
2022-10-23T19:55:22.077Z,4.47
2022-10-23T19:57:49.913Z,5.43
2022-10-23T20:00:20.360Z,5.55
2022-10-23T20:02:50.215Z,5.68
2022-10-23T20:05:22.169Z,5.20
2022-10-23T20:07:51.338Z,5.43
2022-10-23T20:10:19.459Z,4.13
2022-10-23T20:12:56.878Z,4.80
2022-10-23T20:15:41.080Z,5.03
2022-10-23T20:18:11.549Z,4.90
2022-10-23T20:20:41.643Z,4.72
2022-10-23T20:23:12.389Z,5.13
2022-10-23T20:25:40.231Z,5.38
2022-10-23T20:28:10.244Z,5.18
2022-10-23T20:30:43.630Z,5.22
2022-10-23T20:33:12.052Z,4.85
2022-10-23T20:35:41.424Z,4.50
2022-10-23T20:38:09.974Z,4.70
2022-10-23T20:40:39.203Z,4.50
2022-10-23T20:43:07.223Z,4.50
2022-10-23T20:45:35.062Z,4.20
2022-10-23T20:48:05.122Z,4.40
2022-10-23T20:50:34.616Z,4.47
2022-10-23T20:53:02.477Z,4.50
2022-10-23T20:55:30.338Z,4.40
2022-10-23T20:57:58.165Z,4.97
2022-10-23T21:00:26.370Z,4.55
2022-10-23T21:02:54.502Z,4.20
2022-10-23T21:05:23.855Z,5.43
2022-10-23T21:07:51.683Z,4.38
2022-10-23T21:10:19.602Z,4.25
2022-10-23T21:12:47.403Z,5.18
2022-10-23T21:15:15.355Z,4.35
2022-10-23T21:17:43.176Z,4.50
2022-10-23T21:20:11.002Z,5.13
2022-10-23T21:22:40.405Z,6.05
2022-10-23T21:25:09.427Z,5.72
2022-10-23T21:27:37.638Z,5.75
2022-10-23T21:30:08.141Z,5.57
2022-10-23T21:32:36.467Z,5.25
2022-10-23T21:35:06.207Z,4.80
2022-10-23T21:37:34.036Z,4.78
2022-10-23T21:40:04.056Z,5.85
2022-10-23T21:42:33.589Z,5.20
2022-10-23T21:45:01.468Z,5.35
2022-10-23T21:47:29.369Z,5.28
2022-10-23T21:49:57.133Z,5.55
2022-10-23T21:52:24.962Z,6.07
2022-10-23T21:54:53.602Z,6.65
2022-10-23T21:57:22.758Z,6.20
2022-10-23T21:59:50.637Z,6.00
2022-10-23T22:02:18.831Z,6.25
2022-10-23T22:04:46.903Z,7.72
2022-10-23T22:07:14.933Z,6.50
2022-10-23T22:09:44.570Z,6.63
2022-10-23T22:12:12.788Z,7.07
2022-10-23T22:14:42.615Z,6.70
2022-10-23T22:17:10.446Z,7.40
2022-10-23T22:19:38.510Z,7.00
2022-10-23T22:22:06.502Z,7.43
2022-10-23T22:24:36.583Z,7.25
2022-10-23T22:27:05.074Z,6.60
2022-10-23T22:29:32.871Z,7.18
2022-10-23T22:32:02.280Z,7.40
2022-10-23T22:37:18.841Z,6.20
2022-10-23T22:39:50.411Z,7.32
2022-10-23T22:42:18.366Z,6.32
2022-10-23T22:44:46.235Z,6.63
2022-10-23T22:47:15.425Z,7.20
2022-10-23T22:49:43.209Z,6.55
2022-10-23T22:52:11.033Z,6.88
2022-10-23T22:54:39.770Z,7.13
2022-10-23T22:57:07.632Z,6.97
2022-10-23T22:59:35.692Z,6.60
2022-10-23T23:02:03.976Z,6.47
2022-10-23T23:04:37.839Z,6.70
2022-10-23T23:07:08.867Z,6.60
2022-10-23T23:09:39.114Z,6.53
2022-10-23T23:12:10.217Z,6.70
2022-10-23T23:14:39.970Z,6.93
2022-10-23T23:17:09.752Z,6.57
2022-10-23T23:19:39.538Z,6.00
2022-10-23T23:22:08.067Z,6.95
2022-10-23T23:24:36.126Z,7.10
2022-10-23T23:27:04.245Z,6.43
2022-10-23T23:29:32.237Z,5.93
2022-10-23T23:32:00.389Z,6.53
2022-10-23T23:34:30.375Z,6.88
2022-10-23T23:36:59.612Z,6.90
2022-10-23T23:39:28.531Z,6.65
2022-10-23T23:41:56.536Z,6.50
2022-10-23T23:44:24.496Z,6.75
2022-10-23T23:46:53.045Z,6.77
2022-10-23T23:49:20.890Z,6.95
2022-10-23T23:51:48.878Z,7.13
2022-10-23T23:54:18.287Z,7.50
2022-10-23T23:56:46.064Z,7.70
2022-10-23T23:59:14.911Z,8.30
